Time;durP1;ratioP1;P1;durP2;ratioP2;P2;SDS_P1;SDS_P2;PMS_P1;PMS_P2;Temp;Humidity;BMP_temperature;BMP_pressure;BME280_temperature;BME280_humidity;BME280_pressure;Samples;Min_cycle;Max_cycle;Signal;HPM_P1;HPM_P2
2023/11/21 00:01:57;;;;;;;22.17;8.55;;;8.30;99.90;;;;;;4900206;29;20192;-88
2023/11/21 00:04:23;;;;;;;26.65;8.55;;;8.30;99.90;;;;;;4890407;29;20198;-90
2023/11/21 00:06:49;;;;;;;25.75;8.35;;;8.30;99.90;;;;;;4898791;29;20242;-89
2023/11/21 00:09:15;;;;;;;22.15;8.10;;;8.20;99.90;;;;;;4898646;29;20236;-88
2023/11/21 00:11:41;;;;;;;17.48;7.57;;;8.20;99.90;;;;;;4893976;29;20671;-90
2023/11/21 00:14:08;;;;;;;22.58;8.10;;;8.20;99.90;;;;;;4879840;29;20243;-87
2023/11/21 00:16:34;;;;;;;19.48;7.25;;;8.20;99.90;;;;;;4898525;29;20210;-89
2023/11/21 00:18:59;;;;;;;23.70;8.32;;;8.20;99.90;;;;;;4898158;29;20194;-88
2023/11/21 00:21:25;;;;;;;23.52;8.18;;;8.20;99.90;;;;;;4893834;29;20544;-87
2023/11/21 00:23:51;;;;;;;23.73;8.52;;;8.20;99.90;;;;;;4880895;29;20192;-87
2023/11/21 00:26:17;;;;;;;19.95;8.65;;;8.20;99.90;;;;;;4896034;29;20544;-87
2023/11/21 00:28:43;;;;;;;21.70;8.05;;;8.20;99.90;;;;;;4890543;29;20187;-87
2023/11/21 00:31:08;;;;;;;23.38;8.02;;;8.20;99.90;;;;;;4897848;29;20215;-87
2023/11/21 00:33:34;;;;;;;19.98;8.35;;;8.20;99.90;;;;;;4891444;29;20615;-87
2023/11/21 00:36:00;;;;;;;21.02;8.43;;;8.20;99.90;;;;;;4898029;29;20219;-86
2023/11/21 00:38:27;;;;;;;24.30;8.25;;;8.10;99.90;;;;;;4880757;29;20557;-87
2023/11/21 00:40:55;;;;;;;22.83;9.00;;;8.10;99.90;;;;;;4885212;29;20183;-92
2023/11/21 00:43:22;;;;;;;29.15;9.70;;;8.20;99.90;;;;;;4895843;29;20187;-86
2023/11/21 00:45:49;;;;;;;25.55;9.00;;;8.10;99.90;;;;;;4890677;29;20191;-86
2023/11/21 00:48:14;;;;;;;24.45;7.90;;;8.20;99.90;;;;;;4890851;29;20199;-86
2023/11/21 00:50:40;;;;;;;16.98;7.82;;;8.20;99.90;;;;;;4882098;29;20238;-87
2023/11/21 00:53:07;;;;;;;24.58;8.48;;;8.10;99.90;;;;;;4871874;29;20640;-87
2023/11/21 00:55:33;;;;;;;25.25;8.52;;;8.10;99.90;;;;;;4875956;29;20192;-87
2023/11/21 00:57:59;;;;;;;24.10;8.20;;;8.10;99.90;;;;;;4893168;29;20258;-86
2023/11/21 01:00:25;;;;;;;20.50;8.88;;;8.10;99.90;;;;;;4889739;29;20198;-84
2023/11/21 01:02:51;;;;;;;20.05;8.82;;;8.10;99.90;;;;;;4893271;29;20194;-85
2023/11/21 01:05:17;;;;;;;24.13;8.77;;;8.10;99.90;;;;;;4884984;29;20195;-85
2023/11/21 01:07:43;;;;;;;22.27;9.00;;;8.10;99.90;;;;;;4876011;29;20193;-85
2023/11/21 01:10:09;;;;;;;16.38;7.82;;;8.10;99.90;;;;;;4872566;29;20191;-87
2023/11/21 01:12:37;;;;;;;21.90;8.32;;;8.10;99.90;;;;;;4866622;29;20220;-85
2023/11/21 01:15:07;;;;;;;20.48;9.15;;;8.10;99.90;;;;;;4876960;29;20191;-86
2023/11/21 01:17:34;;;;;;;26.67;8.80;;;8.10;99.90;;;;;;4886628;29;20285;-86
2023/11/21 01:20:01;;;;;;;31.70;8.30;;;8.10;99.90;;;;;;4884496;29;20194;-85
2023/11/21 01:22:28;;;;;;;18.15;7.30;;;8.10;99.90;;;;;;4886426;29;20239;-85
2023/11/21 01:24:54;;;;;;;15.93;7.90;;;8.00;99.90;;;;;;4889950;29;20519;-85
2023/11/21 01:27:19;;;;;;;20.08;8.57;;;8.10;99.90;;;;;;4889755;29;20191;-86
2023/11/21 01:29:46;;;;;;;14.63;8.02;;;8.10;99.90;;;;;;4870975;29;20683;-85
2023/11/21 01:32:12;;;;;;;23.42;8.68;;;8.00;99.90;;;;;;4893071;29;20726;-85
2023/11/21 01:34:38;;;;;;;17.45;8.20;;;8.00;99.90;;;;;;4887814;29;20192;-85
2023/11/21 01:37:05;;;;;;;18.48;8.30;;;8.00;99.90;;;;;;4887400;29;20206;-85
2023/11/21 01:39:31;;;;;;;22.17;8.00;;;8.00;99.90;;;;;;4917248;29;20185;-85
2023/11/21 01:42:01;;;;;;;20.55;8.90;;;8.00;99.90;;;;;;4918194;29;20264;-85
2023/11/21 01:44:26;;;;;;;28.88;8.98;;;8.00;99.90;;;;;;4909044;29;20180;-85
2023/11/21 01:46:53;;;;;;;26.00;8.43;;;8.00;99.90;;;;;;4903994;29;20191;-87
2023/11/21 01:49:20;;;;;;;17.77;8.65;;;8.00;99.90;;;;;;4888611;29;20190;-86
2023/11/21 01:51:49;;;;;;;19.02;9.32;;;8.00;99.90;;;;;;4891556;29;20245;-86
2023/11/21 01:54:17;;;;;;;20.55;9.10;;;8.00;99.90;;;;;;4898485;29;20503;-86
2023/11/21 01:56:45;;;;;;;21.58;8.98;;;8.00;99.90;;;;;;4892815;29;20195;-86
2023/11/21 01:59:14;;;;;;;26.55;9.63;;;8.00;99.90;;;;;;4899888;29;20190;-86
2023/11/21 02:01:41;;;;;;;15.38;8.38;;;8.00;99.90;;;;;;4903537;29;20190;-85
2023/11/21 02:04:08;;;;;;;20.67;9.45;;;8.00;99.90;;;;;;4916571;29;20214;-85
2023/11/21 02:06:34;;;;;;;21.70;8.85;;;8.10;99.90;;;;;;4895124;29;20193;-85
2023/11/21 02:08:59;;;;;;;24.17;9.18;;;8.00;99.90;;;;;;4890419;29;20183;-85
2023/11/21 02:11:27;;;;;;;19.90;8.48;;;8.00;99.90;;;;;;4917754;29;20653;-85
2023/11/21 02:13:53;;;;;;;22.17;10.15;;;8.00;99.90;;;;;;4900923;29;20607;-85
2023/11/21 02:16:20;;;;;;;20.42;9.13;;;8.00;99.90;;;;;;4917173;29;20175;-85
2023/11/21 02:18:48;;;;;;;20.67;9.10;;;8.10;99.90;;;;;;4903633;29;20225;-86
2023/11/21 02:21:14;;;;;;;22.38;9.05;;;8.10;99.90;;;;;;4901527;29;20564;-84
2023/11/21 02:23:44;;;;;;;21.55;9.38;;;8.10;99.90;;;;;;4896845;29;20207;-85
2023/11/21 02:28:45;;;;;;;17.27;9.50;;;8.00;99.90;;;;;;4886708;23;20253;-85
2023/11/21 02:31:12;;;;;;;21.35;10.57;;;8.00;99.90;;;;;;4919947;29;20207;-85
2023/11/21 02:33:38;;;;;;;19.80;9.52;;;8.10;99.90;;;;;;4903019;29;20191;-85
2023/11/21 02:36:04;;;;;;;25.85;10.52;;;8.00;99.90;;;;;;4891461;29;20178;-86
2023/11/21 02:38:30;;;;;;;23.73;9.77;;;8.10;99.90;;;;;;4903221;29;20190;-85
2023/11/21 02:40:58;;;;;;;22.25;10.32;;;8.10;99.90;;;;;;4898707;29;20183;-85
2023/11/21 02:43:23;;;;;;;26.80;10.93;;;8.10;99.90;;;;;;4897432;29;20183;-85
2023/11/21 02:45:49;;;;;;;25.08;10.68;;;8.10;99.90;;;;;;4895482;29;20519;-85
2023/11/21 02:48:15;;;;;;;20.23;9.70;;;8.10;99.90;;;;;;4903353;29;20265;-85
2023/11/21 02:50:41;;;;;;;26.20;11.77;;;8.00;99.90;;;;;;4902933;29;20194;-85
2023/11/21 02:53:07;;;;;;;29.90;11.63;;;8.10;99.90;;;;;;4901995;29;20191;-85
2023/11/21 02:55:35;;;;;;;34.03;12.30;;;8.10;99.90;;;;;;4881333;29;20183;-86
2023/11/21 02:58:01;;;;;;;24.38;11.15;;;8.10;99.90;;;;;;4875838;29;20580;-85
2023/11/21 03:00:27;;;;;;;25.20;11.32;;;8.00;99.90;;;;;;4899432;29;20186;-85
2023/11/21 03:02:55;;;;;;;25.40;11.73;;;8.10;99.90;;;;;;4912832;29;20183;-85
2023/11/21 03:05:21;;;;;;;27.40;12.10;;;8.00;99.90;;;;;;4897936;29;20635;-85
2023/11/21 03:07:47;;;;;;;22.67;11.57;;;8.10;99.90;;;;;;4919458;29;20594;-85
2023/11/21 03:10:12;;;;;;;25.98;12.13;;;8.10;99.90;;;;;;4902432;29;20197;-84
2023/11/21 03:12:39;;;;;;;22.17;11.80;;;8.10;99.90;;;;;;4901978;29;20349;-86
2023/11/21 03:15:10;;;;;;;16.70;10.52;;;8.00;99.90;;;;;;4919326;29;20583;-85
2023/11/21 03:17:36;;;;;;;40.35;11.85;;;8.10;99.90;;;;;;4899968;29;20197;-85
2023/11/21 03:20:04;;;;;;;29.20;11.50;;;8.10;99.90;;;;;;4901327;29;20186;-84
2023/11/21 03:22:29;;;;;;;30.60;12.65;;;8.10;99.90;;;;;;4902466;29;20182;-85
2023/11/21 03:24:55;;;;;;;21.70;12.13;;;8.10;99.90;;;;;;4895530;29;20197;-85
2023/11/21 03:27:20;;;;;;;27.27;12.80;;;8.10;99.90;;;;;;4900240;29;20321;-85
2023/11/21 03:29:47;;;;;;;29.90;13.02;;;8.10;99.90;;;;;;4901882;29;20183;-84
2023/11/21 03:32:13;;;;;;;27.42;12.25;;;8.10;99.90;;;;;;4902209;29;20657;-84
2023/11/21 03:34:55;;;;;;;30.42;13.05;;;8.10;99.90;;;;;;4901894;29;20206;-84
2023/11/21 03:37:20;;;;;;;29.63;12.50;;;8.10;99.90;;;;;;4898893;29;20277;-84
2023/11/21 03:39:47;;;;;;;26.58;12.80;;;8.10;99.90;;;;;;4890937;29;20278;-84
2023/11/21 03:42:12;;;;;;;31.75;12.77;;;8.10;99.90;;;;;;4897450;29;20183;-84
2023/11/21 03:44:38;;;;;;;41.53;13.52;;;8.10;99.90;;;;;;4918888;29;20238;-84
2023/11/21 03:47:04;;;;;;;28.73;13.32;;;8.10;99.90;;;;;;4902258;29;20256;-84
2023/11/21 03:49:29;;;;;;;30.60;13.18;;;8.00;99.90;;;;;;4918487;29;20189;-84
2023/11/21 03:51:56;;;;;;;26.15;12.52;;;8.10;99.90;;;;;;4901580;29;20229;-83
2023/11/21 03:54:22;;;;;;;26.45;12.63;;;8.00;99.90;;;;;;4894677;29;20219;-83
2023/11/21 03:56:47;;;;;;;29.92;13.68;;;8.10;99.90;;;;;;4901769;29;20190;-84
2023/11/21 03:59:13;;;;;;;23.67;12.57;;;8.00;99.90;;;;;;4901540;29;20529;-84
2023/11/21 04:01:39;;;;;;;25.83;12.98;;;8.10;99.90;;;;;;4901556;29;20182;-85
2023/11/21 04:04:04;;;;;;;26.10;13.80;;;8.10;99.90;;;;;;4901567;29;20186;-84
2023/11/21 04:06:32;;;;;;;30.25;13.60;;;8.10;99.90;;;;;;4899922;29;20194;-84
2023/11/21 04:08:58;;;;;;;31.45;13.30;;;8.10;99.90;;;;;;4912085;29;20640;-84
2023/11/21 19:23:34;;;;;;;4.33;2.73;;;4.60;99.90;;;;;;4903325;27;20246;-86
2023/11/21 19:26:04;;;;;;;5.10;2.73;;;4.60;99.90;;;;;;4892441;29;20215;-86
2023/11/21 19:28:30;;;;;;;3.57;2.70;;;4.60;99.90;;;;;;4940775;23;20240;-87
2023/11/21 19:30:56;;;;;;;7.53;4.00;;;4.60;99.90;;;;;;4873660;29;20287;-86
2023/11/21 19:33:26;;;;;;;5.87;3.57;;;4.60;99.90;;;;;;4924155;23;20196;-86
2023/11/21 19:35:52;;;;;;;10.77;6.00;;;4.50;99.90;;;;;;4914398;29;20211;-88
2023/11/21 19:38:19;;;;;;;8.77;4.00;;;4.50;99.90;;;;;;4924226;29;20234;-96
2023/11/21 19:40:48;;;;;;;4.57;2.70;;;4.50;99.90;;;;;;4903182;29;20191;-95
2023/11/21 19:43:17;;;;;;;5.13;2.80;;;4.50;99.90;;;;;;4922828;29;20186;-94
2023/11/21 19:45:45;;;;;;;4.27;2.23;;;4.50;99.90;;;;;;4932736;29;20268;-96
2023/11/21 19:48:11;;;;;;;5.03;3.37;;;4.50;99.90;;;;;;4910952;29;20630;-85
2023/11/21 19:50:36;;;;;;;5.13;2.40;;;4.50;99.90;;;;;;4903076;29;20189;-90
2023/11/21 19:53:18;;;;;;;3.43;2.40;;;4.40;99.90;;;;;;4905885;29;20235;-85
2023/11/21 19:55:43;;;;;;;5.17;2.43;;;4.40;99.90;;;;;;4924832;29;20190;-92
2023/11/21 19:58:10;;;;;;;5.37;2.60;;;4.40;99.90;;;;;;4899664;29;20190;-91
2023/11/21 20:00:36;;;;;;;6.23;2.63;;;4.40;99.90;;;;;;4911136;29;20182;-93
2023/11/21 20:03:02;;;;;;;5.47;2.60;;;4.40;99.90;;;;;;4914888;23;21351;-86
2023/11/21 20:05:50;;;;;;;5.97;2.90;;;4.40;99.90;;;;;;4896303;29;20232;-84
2023/11/21 20:08:16;;;;;;;3.83;2.53;;;4.40;99.90;;;;;;4870983;29;20204;-85
2023/11/21 20:10:42;;;;;;;5.07;3.10;;;4.40;99.90;;;;;;4917820;23;20176;-90
2023/11/21 20:13:11;;;;;;;4.90;3.37;;;4.40;99.90;;;;;;4921688;29;20294;-94
2023/11/21 20:15:42;;;;;;;6.03;3.70;;;4.40;99.90;;;;;;5035638;23;20631;-89
2023/11/21 20:18:10;;;;;;;3.97;2.83;;;4.40;99.90;;;;;;4917472;29;20190;-94
2023/11/21 20:23:09;;;;;;;5.20;2.80;;;4.30;99.90;;;;;;4901827;29;20270;-96
2023/11/21 20:25:34;;;;;;;4.60;3.20;;;4.40;99.90;;;;;;4909383;29;20187;-95
2023/11/21 20:28:00;;;;;;;7.07;3.50;;;4.40;99.90;;;;;;4887085;29;20279;-96
2023/11/21 20:30:31;;;;;;;4.97;3.40;;;4.30;99.90;;;;;;4893376;29;20198;-91
2023/11/21 20:33:29;;;;;;;5.70;4.30;;;4.20;99.90;;;;;;4919735;23;20257;-96
2023/11/21 20:35:54;;;;;;;6.33;4.23;;;4.20;99.90;;;;;;4952606;29;20310;-95
2023/11/21 20:38:22;;;;;;;4.40;3.30;;;4.20;99.90;;;;;;4929921;29;20183;-94
2023/11/21 20:40:48;;;;;;;5.00;3.60;;;4.30;99.90;;;;;;4921015;29;20253;-94
2023/11/21 20:43:16;;;;;;;5.80;3.70;;;4.30;99.90;;;;;;4927654;29;20603;-94
2023/11/21 20:45:42;;;;;;;4.37;2.90;;;4.30;99.90;;;;;;4932523;29;20196;-96
2023/11/21 20:48:07;;;;;;;6.57;3.13;;;4.20;99.90;;;;;;4929839;29;20265;-96
2023/11/21 20:50:34;;;;;;;5.27;3.20;;;4.20;99.90;;;;;;4937638;29;20195;-96
2023/11/21 20:53:07;;;;;;;5.07;3.10;;;4.20;99.90;;;;;;4920215;29;20240;-96
2023/11/21 20:55:33;;;;;;;4.53;2.90;;;4.20;99.90;;;;;;4945077;29;20195;-96
2023/11/21 20:57:59;;;;;;;4.07;2.67;;;4.20;99.90;;;;;;4922343;29;20181;-96
2023/11/21 21:00:25;;;;;;;4.80;3.30;;;4.20;99.90;;;;;;4921248;29;20201;-88
2023/11/21 21:02:52;;;;;;;4.53;3.03;;;4.20;99.90;;;;;;4938290;29;20193;-88
2023/11/21 21:05:18;;;;;;;3.57;2.63;;;4.10;99.90;;;;;;4935395;29;20193;-90
2023/11/21 21:07:46;;;;;;;8.00;3.40;;;4.10;99.90;;;;;;4929437;29;20193;-91
2023/11/21 21:10:11;;;;;;;6.53;2.93;;;4.10;99.90;;;;;;4916536;29;20228;-89
2023/11/21 21:12:38;;;;;;;5.57;2.87;;;4.10;99.90;;;;;;4923526;29;20189;-88
2023/11/21 21:15:05;;;;;;;6.23;3.23;;;4.10;99.90;;;;;;4930210;29;20190;-96
2023/11/21 21:17:32;;;;;;;3.93;2.93;;;4.10;99.90;;;;;;4918219;29;20186;-96
2023/11/21 21:19:58;;;;;;;8.53;3.20;;;4.10;99.90;;;;;;4918144;29;20254;-94
2023/11/21 21:22:25;;;;;;;4.57;3.13;;;4.10;99.90;;;;;;4919646;29;20186;-96
2023/11/21 21:24:58;;;;;;;5.07;2.83;;;4.10;99.90;;;;;;4921652;29;20182;-95
2023/11/21 21:27:24;;;;;;;5.23;2.87;;;4.00;99.90;;;;;;4920093;29;20190;-92
2023/11/21 21:29:49;;;;;;;4.40;3.10;;;4.00;99.90;;;;;;4937558;29;20551;-94
2023/11/21 21:32:16;;;;;;;4.27;2.83;;;4.00;99.90;;;;;;4913811;29;20321;-96
2023/11/21 21:34:51;;;;;;;4.77;3.27;;;4.00;99.90;;;;;;4893930;29;20219;-96
2023/11/21 21:37:17;;;;;;;4.80;3.37;;;4.00;99.90;;;;;;4875329;29;20189;-96
2023/11/21 21:39:45;;;;;;;5.60;3.60;;;3.90;99.90;;;;;;4902710;29;20277;-96
2023/11/21 21:42:11;;;;;;;5.83;3.30;;;3.90;99.90;;;;;;4909691;29;20218;-96
2023/11/21 21:44:43;;;;;;;5.03;3.50;;;3.90;99.90;;;;;;4906520;29;20262;-96
2023/11/21 21:47:10;;;;;;;5.73;3.10;;;3.80;99.90;;;;;;4891148;29;20191;-88
2023/11/21 21:49:36;;;;;;;5.70;3.27;;;3.80;99.90;;;;;;4883958;29;20198;-96
2023/11/21 21:52:02;;;;;;;10.00;4.20;;;3.80;99.90;;;;;;4882703;29;20217;-96
2023/11/21 21:54:30;;;;;;;5.87;3.33;;;3.80;99.90;;;;;;4883803;29;20226;-96
2023/11/21 21:56:56;;;;;;;5.87;4.03;;;3.80;99.90;;;;;;4886096;29;20193;-96
2023/11/21 21:59:22;;;;;;;7.93;4.20;;;3.80;99.90;;;;;;4902072;29;20770;-93
2023/11/21 22:01:48;;;;;;;5.27;3.40;;;3.80;99.90;;;;;;4889180;29;20218;-96
2023/11/21 22:04:15;;;;;;;4.83;3.73;;;3.80;99.90;;;;;;4889074;29;20243;-91
2023/11/21 22:06:40;;;;;;;5.80;3.23;;;3.80;99.90;;;;;;4903747;29;20244;-95
2023/11/21 22:09:06;;;;;;;6.13;3.37;;;3.80;99.90;;;;;;4900051;29;20195;-96
2023/11/21 22:11:36;;;;;;;4.60;3.30;;;3.70;99.90;;;;;;4886378;29;20223;-95
2023/11/21 22:14:03;;;;;;;4.67;3.50;;;3.70;99.90;;;;;;4902489;29;20219;-96
2023/11/21 22:16:31;;;;;;;6.93;3.27;;;3.80;99.90;;;;;;4884761;29;20307;-95
2023/11/21 22:18:57;;;;;;;5.37;3.67;;;3.80;99.90;;;;;;4883639;29;20524;-88
2023/11/21 22:21:25;;;;;;;7.30;3.40;;;3.80;99.90;;;;;;4889575;29;20191;-96
2023/11/21 22:23:53;;;;;;;5.50;3.23;;;3.70;99.90;;;;;;4888101;29;20219;-96
2023/11/21 22:26:23;;;;;;;6.20;3.17;;;3.80;99.90;;;;;;4883467;29;20196;-96
2023/11/21 22:28:52;;;;;;;4.47;3.20;;;3.70;99.90;;;;;;4887152;29;20210;-95
2023/11/21 22:31:18;;;;;;;3.93;2.90;;;3.70;99.90;;;;;;4886214;29;20199;-96
2023/11/21 22:33:46;;;;;;;5.00;3.17;;;3.70;99.90;;;;;;4907961;29;20247;-96
2023/11/21 22:36:15;;;;;;;3.57;2.60;;;3.70;99.90;;;;;;4909022;29;20198;-95
2023/11/21 22:38:41;;;;;;;3.93;2.83;;;3.70;99.90;;;;;;4902447;29;20570;-96
2023/11/21 22:41:07;;;;;;;5.87;3.20;;;3.70;99.90;;;;;;4898041;29;20535;-95
2023/11/21 22:43:38;;;;;;;7.53;3.77;;;3.60;99.90;;;;;;4906380;29;20183;-96
2023/11/21 22:46:06;;;;;;;4.07;2.90;;;3.60;99.90;;;;;;4906718;29;20681;-96
2023/11/21 22:48:32;;;;;;;8.23;3.23;;;3.50;99.90;;;;;;4895652;29;20252;-96
2023/11/21 22:50:57;;;;;;;3.70;2.90;;;3.50;99.90;;;;;;4909632;29;20195;-96
2023/11/21 22:53:24;;;;;;;4.43;2.63;;;3.50;99.90;;;;;;4902780;29;20719;-95
2023/11/21 22:56:02;;;;;;;5.50;2.90;;;3.40;99.90;;;;;;4913722;29;20220;-96
2023/11/21 22:58:30;;;;;;;4.67;3.10;;;3.40;99.90;;;;;;4903444;29;20191;-96
2023/11/21 23:00:57;;;;;;;4.70;2.63;;;3.40;99.90;;;;;;4906344;29;20186;-96
2023/11/21 23:03:23;;;;;;;5.60;2.83;;;3.40;99.90;;;;;;4905001;29;20206;-96
2023/11/21 23:05:52;;;;;;;2.93;2.40;;;3.40;99.90;;;;;;4896705;29;20228;-96
2023/11/21 23:08:18;;;;;;;5.93;2.60;;;3.30;99.90;;;;;;4899472;29;20210;-95
2023/11/21 23:10:44;;;;;;;3.60;2.73;;;3.20;99.90;;;;;;4898806;29;20227;-96
2023/11/21 23:13:09;;;;;;;5.67;3.00;;;3.30;99.90;;;;;;4899222;29;20317;-96
2023/11/21 23:15:46;;;;;;;4.13;2.50;;;3.30;99.90;;;;;;4897977;29;20538;-96
2023/11/21 23:18:12;;;;;;;3.90;2.47;;;3.30;99.90;;;;;;4897886;29;20656;-94
2023/11/21 23:20:38;;;;;;;4.63;2.77;;;3.30;99.90;;;;;;4902930;29;20191;-96
2023/11/21 23:23:04;;;;;;;5.93;2.77;;;3.30;99.90;;;;;;4891731;29;20644;-96
2023/11/21 23:25:36;;;;;;;4.40;2.70;;;3.30;99.90;;;;;;4916337;29;20519;-94
2023/11/21 23:28:02;;;;;;;3.50;2.53;;;3.30;99.90;;;;;;4901055;29;20230;-96
2023/11/21 23:30:29;;;;;;;5.17;2.97;;;3.30;99.90;;;;;;4901677;29;20199;-92
2023/11/21 23:32:55;;;;;;;3.57;2.57;;;3.30;99.90;;;;;;4900954;29;20239;-96
2023/11/21 23:35:52;;;;;;;3.60;2.20;;;3.30;99.90;;;;;;4907063;29;20210;-95
2023/11/21 23:38:18;;;;;;;7.53;2.80;;;3.30;99.90;;;;;;4893934;29;20678;-96
2023/11/21 23:40:44;;;;;;;4.57;2.33;;;3.30;99.90;;;;;;4899204;29;20198;-96
2023/11/21 23:43:10;;;;;;;3.80;2.37;;;3.30;99.90;;;;;;4895076;29;20191;-95
2023/11/21 23:45:42;;;;;;;4.47;2.90;;;3.30;99.90;;;;;;4886009;29;20210;-96
2023/11/21 23:48:08;;;;;;;4.43;2.63;;;3.30;99.90;;;;;;4900077;29;20199;-95
2023/11/21 23:50:34;;;;;;;4.00;2.50;;;3.30;99.90;;;;;;4891257;29;20191;-94
2023/11/21 23:53:00;;;;;;;3.40;2.47;;;3.30;99.90;;;;;;4908303;29;20215;-95
2023/11/21 23:55:30;;;;;;;5.90;2.50;;;3.30;99.90;;;;;;4892245;29;20187;-95
2023/11/21 23:57:56;;;;;;;3.83;2.40;;;3.30;99.90;;;;;;4892910;29;20222;-95
